Aviation Digital Data Service (ADDS)

Output produced by METARs form (1119 UTC 28 September 2021)
found at http://www.aviationweather.gov/metar/data/
 
METAR text: RJTI 280700Z 08009KT 9999 FEW030 SCT060 25/16 Q1015
Conditions at: RJTI (TOKYO HELIPORT , JP) observed 0700 UTC 28 September 2021
Temperature: 25.0°C (77°F)
Dewpoint: 16.0°C (61°F) [RH = 57%]
Pressure (altimeter): 29.97 inches Hg (1015.0 mb)
Winds: from the E (80 degrees) at 10 MPH (9 knots; 4.6 m/s)
Visibility: 6 or more miles (10+ km)
Ceiling: at least 12,000 feet AGL
Clouds: few clouds at 3000 feet AGL
scattered clouds at 6000 feet AGL
Weather: no significant weather observed at this time